Aeroporto :
LOGIN :

Iscrizione | Disclaimer

   EN    FR    IT 

 










Sommario :    VFR   VFR Marginale   IFR   IFR Intensivo   IFR Molto Intensivo
Visibilità : 
Base nubi : 
>= 8 km
>= 3000ft
5 / 8 km
1000 / 3000 ft
1500m / 5 km
500 / 1000 ft
800 / 1500m
200 / 500 ft
< 800m
< 200 ft
Simboli :   Temporali  Nebbia  Neve Forte  Precipitazioni Forti  Vento > 20 kt
SIGMETs :   Varie  Temporali  Ghiacco  Turbolenza  Onda orograficha  Ceneri Vulcaniche







- Altitudine del aeroporto : 1475 ft


LSZC - Buochs Stans

ULTIMO METAR :
  • 252350Z AUTO VRB03KT 9999 -RA BKN028 //////TCU 10/06 Q1012

METARs OBSOLETI :
  • 252320Z AUTO VRB03KT 9999 SCT025 BKN030 //////TCU 10/06 Q1012
  • 252250Z AUTO VRB07KT 9999 BKN028 10/06 Q1011
  • 252220Z AUTO 33013KT 310V010 9999 OVC030 11/06 Q1010
  • 252150Z AUTO 33016KT 290V010 9999 OVC030 11/06 Q1010
  • 252120Z AUTO 33013KT 290V360 9999 SCT100 SCT120 12/07 Q1010

Previsioni scadute.
Nessun NOTAM noto per questo aeroporto.
1 SIGMET conosciuto per la FIR Switzerland (LSAS) :
 
Turbolenza severa
LSAS SIGMET 7 VALID 260001/260200 LSZH
LSAS SWITZERLAND FIR SEV TURB FCST WI N4732 E00942 - N4650 E01050 - N4606 E01010 - N4628 E00857 - N4624 E00818 - N4652 E00811 - N4732 E00942 SFC/FL140 STNR WKN=



MetMap, La meteo Aeronautica in un colpo d'occhio ! - Copyright ORBIFLY Dicembre 2007 - Disclaimer

ORBIFLY MET'MAP TEAM :

Programmazione e sviluppo : Alexandra Zaïnal
Concezione e sviluppo : Baudouin d'Aumeries
Co-Programmazione e sviluppo : Marc-Olivier Méhu
Supporto tecnico e logistico : Manuel Goepfert
Aiuto per la traduzione : Arnaldo La Scala

Contatto : metmap@orbifly.com




FONTI E CREDITI :

   NOAA